Airfield :
LOGIN :

Register | Disclaimer

   EN    FR    IT 

 










Legend :    VFR   Marginal VFR   IFR   Intensive IFR   Very Intensive IFR
Visi :
Ceiling :
>= 8 km
>= 3000ft
5 to 8 km
1000 to 3000 ft
1500m to 5 km
500 to 1000 ft
800 to 1500m
200 to 500 ft
< 800m
< 200 ft
Symbols :   Thunderstorms  Fog  Heavy snow  Heavy precipitations  Wind > 20 kt
SIGMETs :     Misc.  Thunderstorms  Icing  Turbulence  Mountain Waves  Volcanic Ashes






- Airport Elevation : 423 ft
- IATA code : PIS


LFBI - Poitiers

CURRENT METAR :
  • 021230Z AUTO 02009KT 350V050 9999 SCT018 OVC037 06/03 Q1019 NOSIG

EXPIRED METARs :
  • 021200Z AUTO 04008KT 9999 SCT016 SCT028 OVC036 06/03 Q1019 NOSIG
  • 021130Z AUTO 04007KT 360V070 9999 BKN016 BKN023 OVC034 06/03 Q1019 NOSIG
  • 021100Z AUTO 04007KT 9999 FEW015 OVC035 06/03 Q1020 NOSIG
  • 021030Z AUTO 04007KT 9999 FEW013 OVC037 06/03 Q1020 NOSIG
  • 021000Z AUTO 04007KT 9999 FEW011 SCT023 OVC036 05/04 Q1020 NOSIG

TAF TAF LFBI
Valid from the 02 at 12:00 until the 03 at 12:00 UTC


021100Z 0212/0312 02007KT 9999 SCT025 BKN035
BECMG 0221/0224 -RA BKN011
PROB30
TEMPO 0300/0308 4500 -RASN BKN006
TEMPO 0308/0312 BKN006



MET'MAP, your aeronautical weather chart ! - Copyright ORBIFLY December 2007 - Disclaimer

ORBIFLY MET'MAP TEAM :

Programming & Development : Alexandra Zaïnal
Original concept : Baudouin d'Aumeries
Technical & hardware support : Manuel Goepfert
Assistance : Marc-Olivier Méhu




SOURCES & CREDITS :

   NOAA